sensor_id;sensor_type;location;lat;lon;timestamp;temperature;humidity
73955;DHT22;62306;52.516;13.290;2022-12-18T00:01:34;-3.10;90.70
73955;DHT22;62306;52.516;13.290;2022-12-18T00:04:06;-3.10;90.70
73955;DHT22;62306;52.516;13.290;2022-12-18T00:06:34;-3.10;90.50
73955;DHT22;62306;52.516;13.290;2022-12-18T00:09:02;-3.10;90.70
73955;DHT22;62306;52.516;13.290;2022-12-18T00:11:31;-3.10;90.60
73955;DHT22;62306;52.516;13.290;2022-12-18T00:13:59;-3.10;90.40
73955;DHT22;62306;52.516;13.290;2022-12-18T00:16:27;-3.10;90.40
73955;DHT22;62306;52.516;13.290;2022-12-18T00:18:59;-3.10;90.00
73955;DHT22;62306;52.516;13.290;2022-12-18T00:21:27;-3.20;90.40
73955;DHT22;62306;52.516;13.290;2022-12-18T00:23:54;-3.40;90.60
73955;DHT22;62306;52.516;13.290;2022-12-18T00:26:23;-3.50;91.20
73955;DHT22;62306;52.516;13.290;2022-12-18T00:28:52;-3.50;91.20
73955;DHT22;62306;52.516;13.290;2022-12-18T00:31:22;-3.50;91.20
73955;DHT22;62306;52.516;13.290;2022-12-18T00:33:50;-3.80;91.20
73955;DHT22;62306;52.516;13.290;2022-12-18T00:36:18;-3.80;91.90
73955;DHT22;62306;52.516;13.290;2022-12-18T00:38:46;-3.70;91.70
73955;DHT22;62306;52.516;13.290;2022-12-18T00:41:15;-3.60;91.40
73955;DHT22;62306;52.516;13.290;2022-12-18T00:44:05;-3.50;91.20
73955;DHT22;62306;52.516;13.290;2022-12-18T00:46:32;-3.40;90.80
73955;DHT22;62306;52.516;13.290;2022-12-18T00:48:59;-3.50;90.70
73955;DHT22;62306;52.516;13.290;2022-12-18T00:51:26;-3.80;91.00
73955;DHT22;62306;52.516;13.290;2022-12-18T00:53:54;-3.90;91.60
73955;DHT22;62306;52.516;13.290;2022-12-18T00:56:24;-3.90;91.90
73955;DHT22;62306;52.516;13.290;2022-12-18T00:58:51;-3.90;91.70
73955;DHT22;62306;52.516;13.290;2022-12-18T01:01:19;-3.80;91.80
73955;DHT22;62306;52.516;13.290;2022-12-18T01:03:46;-3.90;91.60
73955;DHT22;62306;52.516;13.290;2022-12-18T01:06:15;-3.80;91.70
73955;DHT22;62306;52.516;13.290;2022-12-18T01:08:42;-3.70;91.70
73955;DHT22;62306;52.516;13.290;2022-12-18T01:11:10;-3.70;91.30
73955;DHT22;62306;52.516;13.290;2022-12-18T01:13:37;-3.60;91.40
73955;DHT22;62306;52.516;13.290;2022-12-18T01:16:05;-3.50;91.00
73955;DHT22;62306;52.516;13.290;2022-12-18T01:18:33;-3.50;90.90
73955;DHT22;62306;52.516;13.290;2022-12-18T01:21:00;-3.50;90.90
73955;DHT22;62306;52.516;13.290;2022-12-18T01:23:27;-3.50;91.00
73955;DHT22;62306;52.516;13.290;2022-12-18T01:25:54;-3.50;90.60
73955;DHT22;62306;52.516;13.290;2022-12-18T01:28:21;-3.40;90.40
73955;DHT22;62306;52.516;13.290;2022-12-18T01:30:48;-3.50;90.30
73955;DHT22;62306;52.516;13.290;2022-12-18T01:33:15;-3.50;90.60
73955;DHT22;62306;52.516;13.290;2022-12-18T01:35:43;-3.50;90.70
73955;DHT22;62306;52.516;13.290;2022-12-18T01:38:10;-3.70;90.70
73955;DHT22;62306;52.516;13.290;2022-12-18T01:40:37;-3.70;91.30
73955;DHT22;62306;52.516;13.290;2022-12-18T01:43:04;-3.70;91.00
73955;DHT22;62306;52.516;13.290;2022-12-18T01:45:32;-3.60;91.10
73955;DHT22;62306;52.516;13.290;2022-12-18T01:48:00;-3.60;90.90
73955;DHT22;62306;52.516;13.290;2022-12-18T01:50:31;-3.60;90.60
73955;DHT22;62306;52.516;13.290;2022-12-18T01:53:05;-3.60;90.90
73955;DHT22;62306;52.516;13.290;2022-12-18T01:55:38;-3.70;90.80
73955;DHT22;62306;52.516;13.290;2022-12-18T01:58:06;-3.80;91.10
73955;DHT22;62306;52.516;13.290;2022-12-18T02:00:34;-3.80;91.40
73955;DHT22;62306;52.516;13.290;2022-12-18T02:03:01;-3.90;91.60
73955;DHT22;62306;52.516;13.290;2022-12-18T02:05:37;-3.80;91.60
73955;DHT22;62306;52.516;13.290;2022-12-18T02:08:13;-3.70;91.30
73955;DHT22;62306;52.516;13.290;2022-12-18T02:10:47;-3.60;91.10
73955;DHT22;62306;52.516;13.290;2022-12-18T02:13:20;-3.60;90.80
73955;DHT22;62306;52.516;13.290;2022-12-18T02:15:58;-3.70;90.70
73955;DHT22;62306;52.516;13.290;2022-12-18T02:18:31;-3.80;90.90
73955;DHT22;62306;52.516;13.290;2022-12-18T02:21:07;-3.80;91.20
73955;DHT22;62306;52.516;13.290;2022-12-18T02:23:47;-3.80;91.10
73955;DHT22;62306;52.516;13.290;2022-12-18T02:26:26;-3.70;91.10
73955;DHT22;62306;52.516;13.290;2022-12-18T02:29:03;-3.60;90.80
73955;DHT22;62306;52.516;13.290;2022-12-18T02:31:36;-3.60;90.80
73955;DHT22;62306;52.516;13.290;2022-12-18T02:34:06;-3.50;90.50
73955;DHT22;62306;52.516;13.290;2022-12-18T02:36:36;-3.50;90.60
73955;DHT22;62306;52.516;13.290;2022-12-18T02:39:07;-3.60;90.30
73955;DHT22;62306;52.516;13.290;2022-12-18T02:41:38;-3.60;90.40
73955;DHT22;62306;52.516;13.290;2022-12-18T02:44:08;-3.60;90.40
73955;DHT22;62306;52.516;13.290;2022-12-18T02:46:39;-3.80;90.30
73955;DHT22;62306;52.516;13.290;2022-12-18T02:49:16;-3.90;90.80
73955;DHT22;62306;52.516;13.290;2022-12-18T02:51:52;-4.00;91.00
73955;DHT22;62306;52.516;13.290;2022-12-18T02:54:27;-4.00;91.10
73955;DHT22;62306;52.516;13.290;2022-12-18T02:57:04;-3.90;91.10
73955;DHT22;62306;52.516;13.290;2022-12-18T02:59:36;-3.80;90.50
73955;DHT22;62306;52.516;13.290;2022-12-18T03:02:12;-3.80;90.50
73955;DHT22;62306;52.516;13.290;2022-12-18T03:04:48;-3.90;90.90
73955;DHT22;62306;52.516;13.290;2022-12-18T03:07:19;-3.90;91.20
73955;DHT22;62306;52.516;13.290;2022-12-18T03:09:50;-3.90;91.00
73955;DHT22;62306;52.516;13.290;2022-12-18T03:12:24;-3.80;90.90
73955;DHT22;62306;52.516;13.290;2022-12-18T03:14:57;-3.80;90.90
73955;DHT22;62306;52.516;13.290;2022-12-18T03:17:28;-4.10;91.10
73955;DHT22;62306;52.516;13.290;2022-12-18T03:19:59;-4.20;91.50
73955;DHT22;62306;52.516;13.290;2022-12-18T03:22:31;-4.30;91.70
73955;DHT22;62306;52.516;13.290;2022-12-18T03:25:00;-4.50;92.00
73955;DHT22;62306;52.516;13.290;2022-12-18T03:27:29;-4.60;92.50
73955;DHT22;62306;52.516;13.290;2022-12-18T03:30:02;-4.50;92.60
73955;DHT22;62306;52.516;13.290;2022-12-18T03:32:38;-4.40;92.30
73955;DHT22;62306;52.516;13.290;2022-12-18T03:35:07;-4.30;92.00
73955;DHT22;62306;52.516;13.290;2022-12-18T03:37:35;-4.20;91.90
73955;DHT22;62306;52.516;13.290;2022-12-18T03:40:02;-4.20;91.60
73955;DHT22;62306;52.516;13.290;2022-12-18T03:42:35;-4.20;91.90
73955;DHT22;62306;52.516;13.290;2022-12-18T03:45:08;-4.30;91.80
73955;DHT22;62306;52.516;13.290;2022-12-18T03:47:43;-4.40;92.20
73955;DHT22;62306;52.516;13.290;2022-12-18T03:50:16;-4.60;92.40
73955;DHT22;62306;52.516;13.290;2022-12-18T03:52:48;-4.70;92.70
73955;DHT22;62306;52.516;13.290;2022-12-18T03:55:18;-4.60;92.70
73955;DHT22;62306;52.516;13.290;2022-12-18T03:57:49;-4.70;93.00
73955;DHT22;62306;52.516;13.290;2022-12-18T04:00:18;-4.60;93.10
73955;DHT22;62306;52.516;13.290;2022-12-18T04:02:48;-4.60;92.80
73955;DHT22;62306;52.516;13.290;2022-12-18T04:05:18;-4.50;92.60
73955;DHT22;62306;52.516;13.290;2022-12-18T04:07:47;-4.40;92.20
73955;DHT22;62306;52.516;13.290;2022-12-18T04:10:17;-4.40;91.90
73955;DHT22;62306;52.516;13.290;2022-12-18T04:12:45;-4.30;91.90
73955;DHT22;62306;52.516;13.290;2022-12-18T04:15:13;-4.30;91.60
73955;DHT22;62306;52.516;13.290;2022-12-18T04:17:46;-4.30;91.60
73955;DHT22;62306;52.516;13.290;2022-12-18T04:20:14;-4.20;91.50
73955;DHT22;62306;52.516;13.290;2022-12-18T04:22:41;-4.10;91.50
73955;DHT22;62306;52.516;13.290;2022-12-18T04:25:11;-4.50;91.40
73955;DHT22;62306;52.516;13.290;2022-12-18T04:27:38;-4.60;92.10
73955;DHT22;62306;52.516;13.290;2022-12-18T04:30:06;-4.70;92.30
73955;DHT22;62306;52.516;13.290;2022-12-18T04:32:35;-4.70;92.60
73955;DHT22;62306;52.516;13.290;2022-12-18T04:35:03;-4.60;92.50
73955;DHT22;62306;52.516;13.290;2022-12-18T04:37:32;-4.50;92.30
73955;DHT22;62306;52.516;13.290;2022-12-18T04:39:59;-4.30;92.10
73955;DHT22;62306;52.516;13.290;2022-12-18T04:42:26;-4.20;91.70
73955;DHT22;62306;52.516;13.290;2022-12-18T04:44:53;-4.10;91.40
73955;DHT22;62306;52.516;13.290;2022-12-18T04:47:20;-4.30;91.00
73955;DHT22;62306;52.516;13.290;2022-12-18T04:49:48;-4.50;91.40
73955;DHT22;62306;52.516;13.290;2022-12-18T04:52:15;-4.70;92.00
73955;DHT22;62306;52.516;13.290;2022-12-18T04:54:42;-4.40;92.50
73955;DHT22;62306;52.516;13.290;2022-12-18T04:57:09;-4.80;92.20
73955;DHT22;62306;52.516;13.290;2022-12-18T04:59:36;-4.80;92.50
73955;DHT22;62306;52.516;13.290;2022-12-18T05:02:03;-4.80;92.40
73955;DHT22;62306;52.516;13.290;2022-12-18T05:04:30;-4.70;92.70
73955;DHT22;62306;52.516;13.290;2022-12-18T05:06:58;-4.80;92.30
73955;DHT22;62306;52.516;13.290;2022-12-18T05:09:25;-4.80;92.60
73955;DHT22;62306;52.516;13.290;2022-12-18T05:11:52;-4.70;92.60
73955;DHT22;62306;52.516;13.290;2022-12-18T05:14:19;-4.60;92.50
73955;DHT22;62306;52.516;13.290;2022-12-18T05:16:46;-4.60;92.40
73955;DHT22;62306;52.516;13.290;2022-12-18T05:19:13;-4.50;92.20
73955;DHT22;62306;52.516;13.290;2022-12-18T05:21:40;-4.40;91.80
73955;DHT22;62306;52.516;13.290;2022-12-18T05:24:08;-4.60;91.80
73955;DHT22;62306;52.516;13.290;2022-12-18T05:26:35;-4.60;92.30
73955;DHT22;62306;52.516;13.290;2022-12-18T05:29:03;-4.50;91.90
73955;DHT22;62306;52.516;13.290;2022-12-18T05:31:30;-4.60;92.10
73955;DHT22;62306;52.516;13.290;2022-12-18T05:33:57;-4.60;92.30
73955;DHT22;62306;52.516;13.290;2022-12-18T05:36:24;-4.50;92.40
73955;DHT22;62306;52.516;13.290;2022-12-18T05:38:51;-4.50;92.20
73955;DHT22;62306;52.516;13.290;2022-12-18T05:41:20;-4.30;91.70
73955;DHT22;62306;52.516;13.290;2022-12-18T05:43:47;-4.20;91.50
73955;DHT22;62306;52.516;13.290;2022-12-18T05:46:16;-4.30;91.30
73955;DHT22;62306;52.516;13.290;2022-12-18T05:48:44;-4.40;91.30
73955;DHT22;62306;52.516;13.290;2022-12-18T05:51:14;-4.50;91.60
73955;DHT22;62306;52.516;13.290;2022-12-18T05:53:42;-4.50;91.90
73955;DHT22;62306;52.516;13.290;2022-12-18T05:56:11;-4.40;91.40
73955;DHT22;62306;52.516;13.290;2022-12-18T05:58:41;-4.30;91.50
73955;DHT22;62306;52.516;13.290;2022-12-18T06:01:10;-4.30;91.60
73955;DHT22;62306;52.516;13.290;2022-12-18T06:03:37;-4.40;91.60
73955;DHT22;62306;52.516;13.290;2022-12-18T06:06:13;-4.50;91.60
73955;DHT22;62306;52.516;13.290;2022-12-18T06:08:40;-4.60;91.60
73955;DHT22;62306;52.516;13.290;2022-12-18T06:11:07;-4.50;91.90
73955;DHT22;62306;52.516;13.290;2022-12-18T06:13:34;-4.60;91.90
73955;DHT22;62306;52.516;13.290;2022-12-18T06:16:03;-4.60;92.40
73955;DHT22;62306;52.516;13.290;2022-12-18T06:18:31;-4.60;92.20
73955;DHT22;62306;52.516;13.290;2022-12-18T06:20:59;-4.70;92.20
73955;DHT22;62306;52.516;13.290;2022-12-18T06:23:26;-4.60;92.50
73955;DHT22;62306;52.516;13.290;2022-12-18T06:25:53;-4.60;92.10
73955;DHT22;62306;52.516;13.290;2022-12-18T06:28:20;-4.70;91.90
73955;DHT22;62306;52.516;13.290;2022-12-18T06:30:48;-4.70;92.30
73955;DHT22;62306;52.516;13.290;2022-12-18T06:33:16;-4.80;92.30
73955;DHT22;62306;52.516;13.290;2022-12-18T06:35:43;-4.70;92.30
73955;DHT22;62306;52.516;13.290;2022-12-18T06:38:10;-4.80;92.10
73955;DHT22;62306;52.516;13.290;2022-12-18T06:40:38;-4.90;92.50
73955;DHT22;62306;52.516;13.290;2022-12-18T06:43:05;-5.00;92.80
73955;DHT22;62306;52.516;13.290;2022-12-18T06:45:33;-5.00;92.90
73955;DHT22;62306;52.516;13.290;2022-12-18T06:48:00;-5.10;92.90
73955;DHT22;62306;52.516;13.290;2022-12-18T06:50:28;-5.00;93.10
73955;DHT22;62306;52.516;13.290;2022-12-18T06:52:55;-4.90;93.00
73955;DHT22;62306;52.516;13.290;2022-12-18T06:55:22;-4.80;92.70
73955;DHT22;62306;52.516;13.290;2022-12-18T06:57:49;-4.80;92.30
73955;DHT22;62306;52.516;13.290;2022-12-18T07:00:17;-4.70;92.40
73955;DHT22;62306;52.516;13.290;2022-12-18T07:02:44;-4.70;92.20
73955;DHT22;62306;52.516;13.290;2022-12-18T07:05:11;-4.60;92.50
73955;DHT22;62306;52.516;13.290;2022-12-18T07:07:40;-4.60;92.10
73955;DHT22;62306;52.516;13.290;2022-12-18T07:10:07;-4.50;91.90
73955;DHT22;62306;52.516;13.290;2022-12-18T07:12:34;-4.40;91.80
73955;DHT22;62306;52.516;13.290;2022-12-18T07:15:01;-4.30;91.50
73955;DHT22;62306;52.516;13.290;2022-12-18T07:17:28;-4.30;91.40
73955;DHT22;62306;52.516;13.290;2022-12-18T07:19:55;-4.40;91.50
73955;DHT22;62306;52.516;13.290;2022-12-18T07:22:23;-4.40;91.60
73955;DHT22;62306;52.516;13.290;2022-12-18T07:24:52;-4.50;91.70
73955;DHT22;62306;52.516;13.290;2022-12-18T07:27:21;-4.50;91.80
73955;DHT22;62306;52.516;13.290;2022-12-18T07:29:48;-4.50;91.70
73955;DHT22;62306;52.516;13.290;2022-12-18T07:32:15;-4.60;92.20
73955;DHT22;62306;52.516;13.290;2022-12-18T07:34:42;-4.70;92.30
73955;DHT22;62306;52.516;13.290;2022-12-18T07:37:09;-4.60;92.40
73955;DHT22;62306;52.516;13.290;2022-12-18T07:39:36;-4.60;92.50
73955;DHT22;62306;52.516;13.290;2022-12-18T07:42:10;-4.50;92.60
73955;DHT22;62306;52.516;13.290;2022-12-18T07:44:54;-4.50;92.50
73955;DHT22;62306;52.516;13.290;2022-12-18T07:47:21;-4.40;92.10
73955;DHT22;62306;52.516;13.290;2022-12-18T07:49:48;-4.50;92.20
73955;DHT22;62306;52.516;13.290;2022-12-18T07:52:16;-4.60;92.80
73955;DHT22;62306;52.516;13.290;2022-12-18T07:54:43;-4.70;92.70
73955;DHT22;62306;52.516;13.290;2022-12-18T07:57:11;-4.80;93.10
73955;DHT22;62306;52.516;13.290;2022-12-18T07:59:38;-4.80;93.10
73955;DHT22;62306;52.516;13.290;2022-12-18T08:02:05;-4.90;93.30
73955;DHT22;62306;52.516;13.290;2022-12-18T08:04:35;-4.70;93.20
73955;DHT22;62306;52.516;13.290;2022-12-18T08:07:03;-4.60;93.20
73955;DHT22;62306;52.516;13.290;2022-12-18T08:09:30;-4.70;92.80
73955;DHT22;62306;52.516;13.290;2022-12-18T08:11:57;-4.70;93.20
73955;DHT22;62306;52.516;13.290;2022-12-18T08:14:25;-4.70;93.10
73955;DHT22;62306;52.516;13.290;2022-12-18T08:16:52;-4.60;93.10
73955;DHT22;62306;52.516;13.290;2022-12-18T08:19:19;-4.60;93.00
73955;DHT22;62306;52.516;13.290;2022-12-18T08:21:46;-4.50;93.10
73955;DHT22;62306;52.516;13.290;2022-12-18T08:24:13;-4.40;93.00
73955;DHT22;62306;52.516;13.290;2022-12-18T08:26:40;-4.40;92.70
73955;DHT22;62306;52.516;13.290;2022-12-18T08:29:07;-4.20;92.80
73955;DHT22;62306;52.516;13.290;2022-12-18T08:31:35;-4.10;92.00
73955;DHT22;62306;52.516;13.290;2022-12-18T08:34:02;-4.00;91.90
73955;DHT22;62306;52.516;13.290;2022-12-18T08:36:29;-3.80;91.80
73955;DHT22;62306;52.516;13.290;2022-12-18T08:38:56;-4.00;91.70
73955;DHT22;62306;52.516;13.290;2022-12-18T08:41:23;-4.20;92.00
73955;DHT22;62306;52.516;13.290;2022-12-18T08:43:50;-4.30;92.40
73955;DHT22;62306;52.516;13.290;2022-12-18T08:46:37;-4.40;92.50
73955;DHT22;62306;52.516;13.290;2022-12-18T08:49:05;-4.40;92.70
73955;DHT22;62306;52.516;13.290;2022-12-18T08:51:33;-4.40;92.80
73955;DHT22;62306;52.516;13.290;2022-12-18T08:54:01;-4.40;92.90
73955;DHT22;62306;52.516;13.290;2022-12-18T08:56:29;-4.20;92.80
73955;DHT22;62306;52.516;13.290;2022-12-18T08:58:56;-4.10;92.50
73955;DHT22;62306;52.516;13.290;2022-12-18T09:01:23;-3.90;92.40
73955;DHT22;62306;52.516;13.290;2022-12-18T09:03:52;-3.80;92.00
73955;DHT22;62306;52.516;13.290;2022-12-18T09:06:20;-3.60;91.70
73955;DHT22;62306;52.516;13.290;2022-12-18T09:08:47;-3.70;91.50
73955;DHT22;62306;52.516;13.290;2022-12-18T09:11:20;-3.80;91.30
73955;DHT22;62306;52.516;13.290;2022-12-18T09:13:48;-3.80;91.50
73955;DHT22;62306;52.516;13.290;2022-12-18T09:16:15;-3.90;92.00
73955;DHT22;62306;52.516;13.290;2022-12-18T09:18:42;-4.10;92.20
73955;DHT22;62306;52.516;13.290;2022-12-18T09:21:13;-4.00;92.50
73955;DHT22;62306;52.516;13.290;2022-12-18T09:23:41;-3.90;92.10
73955;DHT22;62306;52.516;13.290;2022-12-18T09:26:08;-4.10;92.20
73955;DHT22;62306;52.516;13.290;2022-12-18T09:28:35;-4.10;92.60
73955;DHT22;62306;52.516;13.290;2022-12-18T09:31:05;-3.90;92.40
73955;DHT22;62306;52.516;13.290;2022-12-18T09:33:33;-3.70;92.00
73955;DHT22;62306;52.516;13.290;2022-12-18T09:36:01;-3.60;91.50
73955;DHT22;62306;52.516;13.290;2022-12-18T09:38:30;-3.60;91.20
73955;DHT22;62306;52.516;13.290;2022-12-18T09:41:00;-3.70;91.10
73955;DHT22;62306;52.516;13.290;2022-12-18T09:43:35;-3.70;91.20
73955;DHT22;62306;52.516;13.290;2022-12-18T09:46:07;-3.70;91.50
73955;DHT22;62306;52.516;13.290;2022-12-18T09:48:38;-3.70;91.70
73955;DHT22;62306;52.516;13.290;2022-12-18T09:51:11;-3.80;91.40
73955;DHT22;62306;52.516;13.290;2022-12-18T09:53:44;-3.80;91.70
73955;DHT22;62306;52.516;13.290;2022-12-18T09:56:17;-3.70;91.40
73955;DHT22;62306;52.516;13.290;2022-12-18T09:58:49;-3.80;91.40
73955;DHT22;62306;52.516;13.290;2022-12-18T10:01:20;-3.90;91.80
73955;DHT22;62306;52.516;13.290;2022-12-18T10:03:48;-3.80;92.10
73955;DHT22;62306;52.516;13.290;2022-12-18T10:06:20;-3.80;91.70
73955;DHT22;62306;52.516;13.290;2022-12-18T10:08:54;-3.90;92.10
73955;DHT22;62306;52.516;13.290;2022-12-18T10:11:32;-3.80;92.10
73955;DHT22;62306;52.516;13.290;2022-12-18T10:14:04;-3.80;91.90
73955;DHT22;62306;52.516;13.290;2022-12-18T10:16:39;-3.90;92.30
73955;DHT22;62306;52.516;13.290;2022-12-18T10:19:21;-3.90;92.40
73955;DHT22;62306;52.516;13.290;2022-12-18T10:21:58;-3.90;92.60
73955;DHT22;62306;52.516;13.290;2022-12-18T10:24:33;-3.70;92.70
73955;DHT22;62306;52.516;13.290;2022-12-18T10:27:12;-3.70;92.60
73955;DHT22;62306;52.516;13.290;2022-12-18T10:29:41;-3.60;92.20
73955;DHT22;62306;52.516;13.290;2022-12-18T10:32:14;-3.50;92.20
73955;DHT22;62306;52.516;13.290;2022-12-18T10:34:45;-3.30;92.00
73955;DHT22;62306;52.516;13.290;2022-12-18T10:37:16;-3.30;91.60
73955;DHT22;62306;52.516;13.290;2022-12-18T10:39:45;-3.30;92.00
73955;DHT22;62306;52.516;13.290;2022-12-18T10:42:17;-3.30;91.90
73955;DHT22;62306;52.516;13.290;2022-12-18T10:44:45;-3.40;92.30
73955;DHT22;62306;52.516;13.290;2022-12-18T10:47:14;-3.40;92.50
73955;DHT22;62306;52.516;13.290;2022-12-18T10:49:48;-3.20;92.40
73955;DHT22;62306;52.516;13.290;2022-12-18T10:52:18;-3.30;92.30
73955;DHT22;62306;52.516;13.290;2022-12-18T10:54:52;-3.10;92.50
73955;DHT22;62306;52.516;13.290;2022-12-18T10:57:32;-3.20;92.10
73955;DHT22;62306;52.516;13.290;2022-12-18T11:00:19;-3.00;92.40
73955;DHT22;62306;52.516;13.290;2022-12-18T11:02:47;-3.10;92.40
73955;DHT22;62306;52.516;13.290;2022-12-18T11:05:29;-3.10;92.40
73955;DHT22;62306;52.516;13.290;2022-12-18T11:07:58;-2.90;92.40
73955;DHT22;62306;52.516;13.290;2022-12-18T11:10:32;-3.10;92.30
73955;DHT22;62306;52.516;13.290;2022-12-18T11:13:11;-3.10;92.30
73955;DHT22;62306;52.516;13.290;2022-12-18T11:15:40;-3.30;92.50
73955;DHT22;62306;52.516;13.290;2022-12-18T11:18:17;-3.20;92.50
73955;DHT22;62306;52.516;13.290;2022-12-18T11:20:52;-3.20;92.90
73955;DHT22;62306;52.516;13.290;2022-12-18T11:23:20;-3.10;92.70
73955;DHT22;62306;52.516;13.290;2022-12-18T11:25:55;-3.10;92.80
73955;DHT22;62306;52.516;13.290;2022-12-18T11:28:29;-2.90;92.30
73955;DHT22;62306;52.516;13.290;2022-12-18T11:31:16;-2.90;92.30
73955;DHT22;62306;52.516;13.290;2022-12-18T11:33:46;-2.50;95.00
73955;DHT22;62306;52.516;13.290;2022-12-18T11:36:17;-2.30;93.00
73955;DHT22;62306;52.516;13.290;2022-12-18T11:38:46;-2.10;92.30
73955;DHT22;62306;52.516;13.290;2022-12-18T11:41:21;-1.90;91.80
73955;DHT22;62306;52.516;13.290;2022-12-18T11:44:13;-1.80;91.20
73955;DHT22;62306;52.516;13.290;2022-12-18T11:46:47;-1.90;91.60
73955;DHT22;62306;52.516;13.290;2022-12-18T11:49:20;-1.90;91.50
73955;DHT22;62306;52.516;13.290;2022-12-18T11:51:53;-1.90;91.10
73955;DHT22;62306;52.516;13.290;2022-12-18T11:54:22;-1.80;91.30
73955;DHT22;62306;52.516;13.290;2022-12-18T11:56:53;-1.80;91.00
73955;DHT22;62306;52.516;13.290;2022-12-18T11:59:24;-1.70;91.80
73955;DHT22;62306;52.516;13.290;2022-12-18T12:02:04;-1.70;90.90
73955;DHT22;62306;52.516;13.290;2022-12-18T12:07:38;-1.50;90.80
73955;DHT22;62306;52.516;13.290;2022-12-18T12:10:18;-1.70;89.80
73955;DHT22;62306;52.516;13.290;2022-12-18T12:12:55;-1.90;90.50
73955;DHT22;62306;52.516;13.290;2022-12-18T12:15:34;-1.90;90.50
73955;DHT22;62306;52.516;13.290;2022-12-18T12:18:13;-1.90;90.60
73955;DHT22;62306;52.516;13.290;2022-12-18T12:20:49;-1.90;90.70
73955;DHT22;62306;52.516;13.290;2022-12-18T12:23:27;-2.10;90.70
73955;DHT22;62306;52.516;13.290;2022-12-18T12:26:02;-2.20;91.40
73955;DHT22;62306;52.516;13.290;2022-12-18T12:28:49;-2.10;91.40
73955;DHT22;62306;52.516;13.290;2022-12-18T12:31:30;-2.00;90.80
73955;DHT22;62306;52.516;13.290;2022-12-18T12:34:06;-2.20;91.10
73955;DHT22;62306;52.516;13.290;2022-12-18T12:36:48;-2.30;91.30
73955;DHT22;62306;52.516;13.290;2022-12-18T12:39:23;-2.30;91.50
73955;DHT22;62306;52.516;13.290;2022-12-18T12:41:55;-2.40;91.40
73955;DHT22;62306;52.516;13.290;2022-12-18T12:44:44;-2.50;91.70
73955;DHT22;62306;52.516;13.290;2022-12-18T12:47:16;-2.50;92.00
73955;DHT22;62306;52.516;13.290;2022-12-18T12:49:44;-2.40;91.60
73955;DHT22;62306;52.516;13.290;2022-12-18T12:52:18;-2.50;92.00
73955;DHT22;62306;52.516;13.290;2022-12-18T12:54:48;-2.50;91.90
73955;DHT22;62306;52.516;13.290;2022-12-18T12:57:20;-2.40;91.70
73955;DHT22;62306;52.516;13.290;2022-12-18T12:59:59;-2.40;91.60
73955;DHT22;62306;52.516;13.290;2022-12-18T13:02:33;-2.40;91.50
73955;DHT22;62306;52.516;13.290;2022-12-18T13:05:06;-2.50;91.40
73955;DHT22;62306;52.516;13.290;2022-12-18T13:07:40;-2.50;91.70
73955;DHT22;62306;52.516;13.290;2022-12-18T13:13:08;-2.60;92.30
73955;DHT22;62306;52.516;13.290;2022-12-18T13:15:41;-2.70;92.50
73955;DHT22;62306;52.516;13.290;2022-12-18T13:18:17;-2.70;92.60
73955;DHT22;62306;52.516;13.290;2022-12-18T13:20:46;-2.70;92.50
73955;DHT22;62306;52.516;13.290;2022-12-18T13:26:38;-2.70;92.70
73955;DHT22;62306;52.516;13.290;2022-12-18T13:29:05;-2.80;92.90
73955;DHT22;62306;52.516;13.290;2022-12-18T13:32:00;-2.90;93.10
73955;DHT22;62306;52.516;13.290;2022-12-18T13:34:28;-2.70;93.10
73955;DHT22;62306;52.516;13.290;2022-12-18T13:37:34;-2.70;92.80
73955;DHT22;62306;52.516;13.290;2022-12-18T13:39:44;-2.60;92.80
73955;DHT22;62306;52.516;13.290;2022-12-18T13:42:39;-2.70;92.70
73955;DHT22;62306;52.516;13.290;2022-12-18T13:46:05;-2.70;93.00
73955;DHT22;62306;52.516;13.290;2022-12-18T13:48:36;-2.80;93.10
73955;DHT22;62306;52.516;13.290;2022-12-18T13:51:06;-2.70;92.70
73955;DHT22;62306;52.516;13.290;2022-12-18T13:53:37;-2.80;92.90
73955;DHT22;62306;52.516;13.290;2022-12-18T13:56:06;-2.90;93.10
73955;DHT22;62306;52.516;13.290;2022-12-18T13:58:33;-2.90;93.20
73955;DHT22;62306;52.516;13.290;2022-12-18T14:01:00;-2.90;93.20
73955;DHT22;62306;52.516;13.290;2022-12-18T14:03:30;-2.80;93.30
73955;DHT22;62306;52.516;13.290;2022-12-18T14:06:03;-2.70;92.70
73955;DHT22;62306;52.516;13.290;2022-12-18T14:08:39;-2.70;92.80
73955;DHT22;62306;52.516;13.290;2022-12-18T14:11:07;-2.90;92.90
73955;DHT22;62306;52.516;13.290;2022-12-18T14:13:46;-2.80;92.60
73955;DHT22;62306;52.516;13.290;2022-12-18T14:16:15;-3.00;92.80
73955;DHT22;62306;52.516;13.290;2022-12-18T14:18:45;-3.00;92.70
73955;DHT22;62306;52.516;13.290;2022-12-18T14:21:23;-3.00;92.80
73955;DHT22;62306;52.516;13.290;2022-12-18T14:24:04;-2.90;92.80
73955;DHT22;62306;52.516;13.290;2022-12-18T14:26:32;-2.90;92.80
73955;DHT22;62306;52.516;13.290;2022-12-18T14:29:00;-2.90;92.70
73955;DHT22;62306;52.516;13.290;2022-12-18T14:31:30;-2.90;92.70
73955;DHT22;62306;52.516;13.290;2022-12-18T14:33:57;-3.00;93.00
73955;DHT22;62306;52.516;13.290;2022-12-18T14:36:28;-3.00;93.00
73955;DHT22;62306;52.516;13.290;2022-12-18T14:38:56;-2.90;93.00
73955;DHT22;62306;52.516;13.290;2022-12-18T14:41:24;-2.80;92.90
73955;DHT22;62306;52.516;13.290;2022-12-18T14:43:53;-2.80;92.80
73955;DHT22;62306;52.516;13.290;2022-12-18T14:46:33;-2.70;92.50
73955;DHT22;62306;52.516;13.290;2022-12-18T14:49:02;-2.90;92.50
73955;DHT22;62306;52.516;13.290;2022-12-18T14:51:32;-3.10;92.70
73955;DHT22;62306;52.516;13.290;2022-12-18T14:54:01;-3.20;93.00
73955;DHT22;62306;52.516;13.290;2022-12-18T14:56:30;-3.20;93.30
73955;DHT22;62306;52.516;13.290;2022-12-18T14:58:59;-3.20;93.70
73955;DHT22;62306;52.516;13.290;2022-12-18T15:01:29;-3.20;93.60
73955;DHT22;62306;52.516;13.290;2022-12-18T15:03:58;-3.10;93.40
73955;DHT22;62306;52.516;13.290;2022-12-18T15:06:28;-3.10;93.30
73955;DHT22;62306;52.516;13.290;2022-12-18T15:08:59;-3.10;93.20
73955;DHT22;62306;52.516;13.290;2022-12-18T15:11:35;-3.00;93.10
73955;DHT22;62306;52.516;13.290;2022-12-18T15:14:21;-3.10;93.10
73955;DHT22;62306;52.516;13.290;2022-12-18T15:16:51;-3.10;93.40
73955;DHT22;62306;52.516;13.290;2022-12-18T15:19:20;-3.10;93.50
73955;DHT22;62306;52.516;13.290;2022-12-18T15:21:48;-3.10;93.50
73955;DHT22;62306;52.516;13.290;2022-12-18T15:24:20;-3.10;93.40
73955;DHT22;62306;52.516;13.290;2022-12-18T15:26:50;-3.00;93.20
73955;DHT22;62306;52.516;13.290;2022-12-18T15:29:20;-2.90;92.70
73955;DHT22;62306;52.516;13.290;2022-12-18T15:31:59;-3.10;92.90
73955;DHT22;62306;52.516;13.290;2022-12-18T15:34:27;-3.20;92.70
73955;DHT22;62306;52.516;13.290;2022-12-18T15:36:54;-3.30;92.60
73955;DHT22;62306;52.516;13.290;2022-12-18T15:39:23;-3.40;93.00
73955;DHT22;62306;52.516;13.290;2022-12-18T15:41:50;-3.30;93.60
73955;DHT22;62306;52.516;13.290;2022-12-18T15:44:35;-3.30;93.10
73955;DHT22;62306;52.516;13.290;2022-12-18T15:47:02;-3.20;92.80